| time (UTC) | temp F | wind direction | speed MPH | gust MPH | rain 1hr in | rain 24hr in | rain mn in | humidity % | barometer mb |
| 20260902021605 | 82 | 111 | 4.0 | 11.0 | 0.00 | 0.00 | 0.00 | 57 | 1013.6 |
| 20260902021533 | 82 | 113 | 3.0 | 11.0 | 0.00 | 0.00 | 0.00 | 69 | 1013.0 |
| 20260902020100 | 82 | 97 | 3.0 | 7.0 | 0.00 | 0.00 | 0.00 | 57 | 1013.3 |
| 20260902020047 | 82 | 118 | 4.0 | 7.0 | 0.00 | 0.00 | 0.00 | 68 | 1012.8 |
| 20260902014558 | 82 | 80 | 1.0 | 7.0 | 0.00 | 0.00 | 0.00 | 56 | 1013.2 |
| 20260902014532 | 82 | 80 | 1.0 | 7.0 | 0.00 | 0.00 | 0.00 | 68 | 1012.7 |
| 20260902013101 | 82 | 117 | 2.0 | 6.0 | 0.00 | 0.00 | 0.00 | 56 | 1013.0 |
| 20260902013036 | 82 | 117 | 2.0 | 6.0 | 0.00 | 0.00 | 0.00 | 68 | 1012.4 |
| 20260902011607 | 83 | 0 | 1.0 | 7.0 | 0.00 | 0.00 | 0.00 | 56 | 1012.9 |
| 20260902011530 | 83 | 112 | 1.0 | 4.0 | 0.00 | 0.00 | 0.00 | 67 | 1012.2 |
| 20260902010121 | 83 | 109 | 1.0 | 7.0 | 0.00 | 0.00 | 0.00 | 55 | 1013.0 |
| 20260902010034 | 83 | 109 | 1.0 | 7.0 | 0.00 | 0.00 | 0.00 | 66 | 1012.4 |
| 20260902004601 | 84 | 133 | 3.0 | 7.0 | 0.00 | 0.00 | 0.00 | 54 | 1013.2 |
| 20260902004530 | 84 | 133 | 3.0 | 7.0 | 0.00 | 0.00 | 0.00 | 66 | 1012.6 |
| 20260902003107 | 84 | 360 | 4.0 | 11.0 | 0.00 | 0.00 | 0.00 | 53 | 1013.4 |
| 20260902003027 | 84 | 360 | 4.0 | 11.0 | 0.00 | 0.00 | 0.00 | 65 | 1012.7 |
| 20260902001601 | 85 | 113 | 4.0 | 11.0 | 0.00 | 0.00 | 0.00 | 52 | 1013.4 |
| 20260902001529 | 85 | 103 | 4.0 | 11.0 | 0.00 | 0.00 | 0.00 | 64 | 1012.8 |
| 20260902000059 | 85 | 130 | 2.0 | 8.0 | 0.00 | 0.00 | 0.00 | 53 | 1013.5 |
| 20260902000030 | 85 | 130 | 3.0 | 8.0 | 0.00 | 0.00 | 0.00 | 64 | 1012.9 |
| 20260901234605 | 85 | 113 | 3.0 | 12.0 | 0.00 | 0.00 | 0.00 | 53 | 1013.6 |
| 20260901234525 | 85 | 113 | 4.0 | 10.0 | 0.00 | 0.00 | 0.00 | 65 | 1012.8 |
| 20260901233107 | 85 | 133 | 4.0 | 18.0 | 0.00 | 0.00 | 0.00 | 53 | 1013.4 |
| 20260901233024 | 85 | 130 | 4.0 | 18.0 | 0.00 | 0.00 | 0.00 | 64 | 1012.8 |
| 20260901231559 | 85 | 138 | 7.0 | 13.0 | 0.00 | 0.00 | 0.00 | 53 | 1013.4 |
| 20260901231524 | 85 | 115 | 7.0 | 13.0 | 0.00 | 0.00 | 0.00 | 64 | 1012.8 |
| 20260901230101 | 86 | 133 | 6.0 | 12.0 | 0.00 | 0.00 | 0.00 | 52 | 1013.4 |
| 20260901230038 | 86 | 107 | 6.0 | 10.0 | 0.00 | 0.00 | 0.00 | 64 | 1012.8 |
| 20260901224603 | 86 | 96 | 4.0 | 15.0 | 0.00 | 0.00 | 0.00 | 53 | 1013.5 |
| 20260901224524 | 86 | 96 | 4.0 | 13.0 | 0.00 | 0.00 | 0.00 | 65 | 1012.8 |
| 20260901223105 | 85 | 149 | 7.0 | 12.0 | 0.00 | 0.00 | 0.00 | 54 | 1013.4 |
| 20260901223023 | 85 | 103 | 7.0 | 12.0 | 0.00 | 0.00 | 0.00 | 65 | 1012.7 |
| 20260901221632 | 85 | 140 | 8.0 | 16.0 | 0.00 | 0.00 | 0.00 | 54 | 1013.5 |
| 20260901221525 | 85 | 124 | 8.0 | 16.0 | 0.00 | 0.00 | 0.00 | 65 | 1012.9 |
| 20260901220107 | 85 | 129 | 5.0 | 11.0 | 0.00 | 0.00 | 0.00 | 54 | 1013.5 |
| 20260901220036 | 85 | 159 | 5.0 | 11.0 | 0.00 | 0.00 | 0.00 | 66 | 1012.9 |
| 20260901214600 | 85 | 175 | 7.0 | 15.0 | 0.00 | 0.00 | 0.00 | 54 | 1013.6 |
| 20260901214519 | 85 | 147 | 7.0 | 12.0 | 0.00 | 0.00 | 0.00 | 66 | 1012.9 |
| 20260901213105 | 85 | 142 | 5.0 | 15.0 | 0.00 | 0.00 | 0.00 | 55 | 1013.8 |
| 20260901213019 | 85 | 170 | 4.0 | 15.0 | 0.00 | 0.00 | 0.00 | 67 | 1013.3 |
| 20260901211607 | 86 | 132 | 7.0 | 13.0 | 0.00 | 0.00 | 0.00 | 53 | 1013.9 |
| 20260901211519 | 86 | 185 | 8.0 | 14.0 | 0.00 | 0.00 | 0.00 | 65 | 1013.2 |
| 20260901210100 | 88 | 132 | 9.0 | 15.0 | 0.00 | 0.00 | 0.00 | 50 | 1013.9 |
| 20260901210026 | 88 | 163 | 10.0 | 16.0 | 0.00 | 0.00 | 0.00 | 62 | 1013.2 |
| 20260901204601 | 90 | 161 | 4.0 | 11.0 | 0.00 | 0.00 | 0.00 | 47 | 1013.7 |
| 20260901204517 | 90 | 117 | 4.0 | 10.0 | 0.00 | 0.00 | 0.00 | 59 | 1013.1 |
| 20260901203107 | 90 | 148 | 7.0 | 12.0 | 0.00 | 0.00 | 0.00 | 45 | 1013.5 |
| 20260901203026 | 90 | 134 | 7.0 | 10.0 | 0.00 | 0.00 | 0.00 | 57 | 1012.9 |
| 20260901201600 | 92 | 110 | 8.0 | 16.0 | 0.00 | 0.00 | 0.00 | 41 | 1013.6 |
| 20260901201515 | 92 | 115 | 8.0 | 16.0 | 0.00 | 0.00 | 0.00 | 52 | 1013.0 |
| 20260901200108 | 94 | 112 | 7.0 | 17.0 | 0.00 | 0.00 | 0.00 | 37 | 1013.7 |
| 20260901200014 | 94 | 130 | 7.0 | 14.0 | 0.00 | 0.00 | 0.00 | 48 | 1013.1 |
| 20260901194606 | 95 | 146 | 7.0 | 16.0 | 0.00 | 0.00 | 0.00 | 35 | 1013.7 |
| 20260901194514 | 95 | 153 | 8.0 | 16.0 | 0.00 | 0.00 | 0.00 | 47 | 1013.1 |
| 20260901193116 | 95 | 133 | 7.0 | 16.0 | 0.00 | 0.00 | 0.00 | 36 | 1013.8 |
| 20260901193013 | 95 | 84 | 6.0 | 14.0 | 0.00 | 0.00 | 0.00 | 48 | 1013.3 |
| 20260901191607 | 93 | 98 | 6.0 | 16.0 | 0.00 | 0.00 | 0.00 | 37 | 1013.9 |
| 20260901191508 | 93 | 104 | 6.0 | 16.0 | 0.00 | 0.00 | 0.00 | 49 | 1013.3 |
| 20260901190121 | 94 | 82 | 6.0 | 14.0 | 0.00 | 0.00 | 0.00 | 36 | 1014.0 |
| 20260901190009 | 94 | 82 | 6.0 | 14.0 | 0.00 | 0.00 | 0.00 | 47 | 1013.5 |
| 20260901184606 | 94 | 131 | 6.0 | 13.0 | 0.00 | 0.00 | 0.00 | 37 | 1014.0 |
| 20260901184507 | 94 | 178 | 6.0 | 13.0 | 0.00 | 0.00 | 0.00 | 48 | 1013.4 |
| 20260901183109 | 94 | 130 | 7.0 | 16.0 | 0.00 | 0.00 | 0.00 | 36 | 1014.1 |
| 20260901183011 | 94 | 140 | 6.0 | 16.0 | 0.00 | 0.00 | 0.00 | 48 | 1013.6 |
| 20260901181607 | 95 | 85 | 3.0 | 13.0 | 0.00 | 0.00 | 0.00 | 37 | 1014.2 |
| 20260901181502 | 95 | 116 | 3.0 | 12.0 | 0.00 | 0.00 | 0.00 | 49 | 1013.7 |
| 20260901180105 | 94 | 92 | 3.0 | 11.0 | 0.00 | 0.00 | 0.00 | 39 | 1014.4 |
| 20260901180100 | 94 | 92 | 2.0 | 11.0 | 0.00 | 0.00 | 0.00 | 51 | 1013.9 |
| 20260901174611 | 93 | 119 | 4.0 | 9.0 | 0.00 | 0.00 | 0.00 | 52 | 1014.2 |
| 20260901174606 | 93 | 90 | 3.0 | 9.0 | 0.00 | 0.00 | 0.00 | 41 | 1014.6 |
| 20260901173105 | 92 | 79 | 4.0 | 11.0 | 0.00 | 0.00 | 0.00 | 42 | 1015.2 |
| 20260901173051 | 92 | 79 | 5.0 | 15.0 | 0.00 | 0.00 | 0.00 | 54 | 1014.7 |
| 20260901171609 | 92 | 117 | 6.0 | 13.0 | 0.00 | 0.00 | 0.00 | 42 | 1015.6 |
| 20260901171549 | 92 | 117 | 6.0 | 11.0 | 0.00 | 0.00 | 0.00 | 54 | 1015.1 |
| 20260901170159 | 92 | 129 | 5.0 | 11.0 | 0.00 | 0.00 | 0.00 | 43 | 1015.8 |
| 20260901170047 | 92 | 130 | 5.0 | 11.0 | 0.00 | 0.00 | 0.00 | 55 | 1015.3 |
| 20260901164609 | 91 | 69 | 5.0 | 12.0 | 0.00 | 0.00 | 0.00 | 44 | 1016.0 |
| 20260901164548 | 91 | 70 | 6.0 | 12.0 | 0.00 | 0.00 | 0.00 | 56 | 1015.6 |
| 20260901163107 | 91 | 86 | 3.0 | 10.0 | 0.00 | 0.00 | 0.00 | 47 | 1016.4 |
| 20260901163044 | 91 | 86 | 3.0 | 10.0 | 0.00 | 0.00 | 0.00 | 58 | 1016.1 |
| 20260901161614 | 90 | 104 | 4.0 | 10.0 | 0.00 | 0.00 | 0.00 | 49 | 1016.4 |
| 20260901161541 | 90 | 104 | 3.0 | 10.0 | 0.00 | 0.00 | 0.00 | 60 | 1016.1 |
| 20260901160106 | 89 | 84 | 1.0 | 6.0 | 0.00 | 0.00 | 0.00 | 50 | 1016.3 |
| 20260901160038 | 89 | 84 | 2.0 | 6.0 | 0.00 | 0.00 | 0.00 | 62 | 1016.0 |
| 20260901154607 | 88 | 117 | 4.0 | 9.0 | 0.00 | 0.00 | 0.00 | 53 | 1016.1 |
| 20260901154536 | 88 | 117 | 4.0 | 9.0 | 0.00 | 0.00 | 0.00 | 64 | 1015.8 |
| 20260901153126 | 88 | 90 | 4.0 | 10.0 | 0.00 | 0.00 | 0.00 | 53 | 1016.2 |
| 20260901153037 | 88 | 103 | 5.0 | 10.0 | 0.00 | 0.00 | 0.00 | 64 | 1016.1 |
| 20260901151604 | 87 | 102 | 2.0 | 9.0 | 0.00 | 0.00 | 0.00 | 56 | 1016.4 |
| 20260901151530 | 87 | 102 | 1.0 | 9.0 | 0.00 | 0.00 | 0.00 | 68 | 1016.2 |
| 20260901150107 | 86 | 344 | 2.0 | 10.0 | 0.00 | 0.00 | 0.00 | 58 | 1016.5 |
| 20260901150032 | 85 | 28 | 2.0 | 6.0 | 0.00 | 0.00 | 0.00 | 69 | 1016.4 |
| 20260901144605 | 85 | 67 | 2.0 | 5.0 | 0.00 | 0.00 | 0.00 | 57 | 1016.6 |
| 20260901144526 | 85 | 67 | 2.0 | 5.0 | 0.00 | 0.00 | 0.00 | 68 | 1016.4 |
| 20260901143108 | 84 | 101 | 2.0 | 8.0 | 0.00 | 0.00 | 0.00 | 56 | 1016.5 |
| 20260901143024 | 84 | 93 | 3.0 | 8.0 | 0.00 | 0.00 | 0.00 | 68 | 1016.4 |
| 20260901141605 | 84 | 82 | 1.0 | 7.0 | 0.00 | 0.00 | 0.00 | 56 | 1016.5 |
| 20260901141522 | 84 | 65 | 1.0 | 7.0 | 0.00 | 0.00 | 0.00 | 67 | 1016.2 |
| 20260901140103 | 82 | 0 | 1.0 | 4.0 | 0.00 | 0.00 | 0.00 | 55 | 1016.5 |
| 20260901140024 | 82 | 109 | 1.0 | 4.0 | 0.00 | 0.00 | 0.00 | 66 | 1016.4 |
| 20260901134604 | 81 | 106 | 1.0 | 4.0 | 0.00 | 0.00 | 0.00 | 52 | 1016.7 |
| 20260901134514 | 80 | 106 | 1.0 | 4.0 | 0.00 | 0.00 | 0.00 | 64 | 1016.5 |
| 20260901133106 | 78 | 0 | 0.0 | 0.0 | 0.00 | 0.00 | 0.00 | 52 | 1016.7 |
| 20260901133012 | 78 | 107 | 0.0 | 0.0 | 0.00 | 0.00 | 0.00 | 63 | 1016.6 |
| 20260901131625 | 76 | 0 | 0.0 | 0.0 | 0.00 | 0.00 | 0.00 | 51 | 1016.7 |
| 20260901131507 | 76 | 107 | 0.0 | 0.0 | 0.00 | 0.00 | 0.00 | 63 | 1016.5 |
| 20260901130105 | 73 | 0 | 0.0 | 0.0 | 0.00 | 0.00 | 0.00 | 54 | 1016.4 |
| 20260901130003 | 73 | 107 | 0.0 | 0.0 | 0.00 | 0.00 | 0.00 | 66 | 1016.1 |
| 20260901124602 | 72 | 0 | 0.0 | 0.0 | 0.00 | 0.00 | 0.00 | 55 | 1016.0 |
| 20260901124502 | 72 | 109 | 0.0 | 0.0 | 0.00 | 0.00 | 0.00 | 66 | 1015.9 |
| 20260901123105 | 71 | 0 | 0.0 | 0.0 | 0.00 | 0.00 | 0.00 | 56 | 1015.8 |
| 20260901123058 | 71 | 360 | 0.0 | 0.0 | 0.00 | 0.00 | 0.00 | 68 | 1015.6 |
| 20260901121601 | 71 | 0 | 0.0 | 0.0 | 0.00 | 0.00 | 0.00 | 56 | 1015.7 |
| 20260901121559 | 71 | 360 | 0.0 | 0.0 | 0.00 | 0.00 | 0.00 | 68 | 1015.6 |
| 20260901120119 | 71 | 360 | 0.0 | 0.0 | 0.00 | 0.00 | 0.00 | 67 | 1015.6 |
| 20260901120101 | 71 | 0 | 0.0 | 0.0 | 0.00 | 0.00 | 0.00 | 56 | 1015.7 |
| 20260901114601 | 71 | 0 | 0.0 | 0.0 | 0.00 | 0.00 | 0.00 | 56 | 1015.5 |
| 20260901114556 | 71 | 360 | 0.0 | 0.0 | 0.00 | 0.00 | 0.00 | 67 | 1015.4 |
| 20260901113110 | 71 | 0 | 0.0 | 0.0 | 0.00 | 0.00 | 0.00 | 57 | 1015.5 |
| 20260901113058 | 71 | 360 | 0.0 | 0.0 | 0.00 | 0.00 | 0.00 | 68 | 1015.3 |
| 20260901111608 | 71 | 0 | 0.0 | 0.0 | 0.00 | 0.00 | 0.00 | 57 | 1015.4 |
| 20260901111552 | 71 | 360 | 0.0 | 0.0 | 0.00 | 0.00 | 0.00 | 68 | 1015.3 |
| 20260901110106 | 72 | 0 | 0.0 | 0.0 | 0.00 | 0.00 | 0.00 | 57 | 1015.5 |
| 20260901110057 | 72 | 360 | 0.0 | 0.0 | 0.00 | 0.00 | 0.00 | 68 | 1015.2 |
| 20260901104608 | 72 | 0 | 0.0 | 1.0 | 0.00 | 0.00 | 0.00 | 57 | 1015.4 |
| 20260901104557 | 72 | 360 | 0.0 | 1.0 | 0.00 | 0.00 | 0.00 | 68 | 1015.1 |
| 20260901103101 | 72 | 0 | 0.0 | 0.0 | 0.00 | 0.00 | 0.00 | 57 | 1015.3 |
| 20260901103049 | 72 | 360 | 0.0 | 0.0 | 0.00 | 0.00 | 0.00 | 68 | 1014.9 |
| 20260901101607 | 72 | 0 | 0.0 | 1.0 | 0.00 | 0.00 | 0.00 | 58 | 1015.3 |
| 20260901101553 | 72 | 360 | 0.0 | 0.0 | 0.00 | 0.00 | 0.00 | 70 | 1014.9 |
| 20260901100111 | 72 | 360 | 1.0 | 3.0 | 0.00 | 0.00 | 0.00 | 59 | 1015.3 |
| 20260901100048 | 72 | 360 | 1.0 | 3.0 | 0.00 | 0.00 | 0.00 | 71 | 1014.9 |
| 20260901094606 | 72 | 0 | 0.0 | 0.0 | 0.00 | 0.00 | 0.00 | 58 | 1015.3 |
| 20260901094546 | 72 | 360 | 0.0 | 0.0 | 0.00 | 0.00 | 0.00 | 70 | 1014.9 |
| 20260901093105 | 73 | 0 | 0.0 | 0.0 | 0.00 | 0.00 | 0.00 | 58 | 1015.3 |
| 20260901093051 | 73 | 360 | 0.0 | 0.0 | 0.00 | 0.00 | 0.00 | 70 | 1014.8 |
| 20260901091601 | 73 | 0 | 0.0 | 0.0 | 0.00 | 0.00 | 0.00 | 59 | 1015.4 |
| 20260901091557 | 73 | 360 | 0.0 | 0.0 | 0.00 | 0.00 | 0.00 | 70 | 1015.0 |
| 20260901090106 | 73 | 0 | 0.0 | 0.0 | 0.00 | 0.00 | 0.00 | 60 | 1015.4 |
| 20260901090042 | 73 | 360 | 0.0 | 0.0 | 0.00 | 0.00 | 0.00 | 71 | 1015.1 |
| 20260901084610 | 73 | 0 | 0.0 | 0.0 | 0.00 | 0.00 | 0.00 | 60 | 1015.4 |
| 20260901084542 | 73 | 360 | 0.0 | 0.0 | 0.00 | 0.00 | 0.00 | 71 | 1015.0 |
| 20260901083101 | 73 | 0 | 0.0 | 0.0 | 0.00 | 0.00 | 0.00 | 61 | 1015.5 |
| 20260901083041 | 73 | 360 | 0.0 | 0.0 | 0.00 | 0.00 | 0.00 | 72 | 1015.1 |
| 20260901081605 | 73 | 0 | 0.0 | 0.0 | 0.00 | 0.00 | 0.00 | 61 | 1015.5 |
| 20260901081540 | 73 | 360 | 0.0 | 0.0 | 0.00 | 0.00 | 0.00 | 72 | 1015.0 |
| 20260901080107 | 74 | 0 | 0.0 | 0.0 | 0.00 | 0.00 | 0.00 | 61 | 1015.5 |
| 20260901080039 | 74 | 360 | 0.0 | 0.0 | 0.00 | 0.00 | 0.00 | 73 | 1015.0 |
| 20260901074559 | 74 | 0 | 0.0 | 0.0 | 0.00 | 0.00 | 0.00 | 61 | 1015.4 |
| 20260901074546 | 74 | 360 | 0.0 | 0.0 | 0.00 | 0.00 | 0.00 | 73 | 1015.0 |
| 20260901073102 | 74 | 0 | 0.0 | 0.0 | 0.00 | 0.00 | 0.00 | 61 | 1015.5 |
| 20260901073036 | 74 | 360 | 0.0 | 0.0 | 0.00 | 0.00 | 0.00 | 73 | 1015.0 |
| 20260901071603 | 74 | 0 | 0.0 | 0.0 | 0.00 | 0.00 | 0.00 | 62 | 1015.5 |
| 20260901071536 | 74 | 360 | 0.0 | 0.0 | 0.00 | 0.00 | 0.00 | 74 | 1015.1 |
| 20260901070107 | 75 | 0 | 0.0 | 0.0 | 0.00 | 0.00 | 0.00 | 62 | 1015.7 |
| 20260901070033 | 75 | 360 | 0.0 | 0.0 | 0.00 | 0.00 | 0.00 | 74 | 1015.2 |
| 20260901064602 | 75 | 0 | 0.0 | 0.0 | 0.00 | 0.00 | 0.00 | 62 | 1015.7 |
| 20260901064533 | 75 | 360 | 0.0 | 0.0 | 0.00 | 0.00 | 0.00 | 74 | 1015.2 |
| 20260901063106 | 75 | 0 | 0.0 | 0.0 | 0.00 | 0.00 | 0.00 | 62 | 1015.6 |
| 20260901063033 | 75 | 360 | 0.0 | 0.0 | 0.00 | 0.00 | 0.00 | 74 | 1015.2 |
| 20260901061615 | 75 | 0 | 0.0 | 0.0 | 0.00 | 0.00 | 0.00 | 62 | 1015.8 |
| 20260901061529 | 75 | 360 | 0.0 | 0.0 | 0.00 | 0.00 | 0.00 | 73 | 1015.3 |
| 20260901060106 | 76 | 0 | 0.0 | 0.0 | 0.00 | 0.00 | 0.00 | 62 | 1015.6 |
| 20260901060028 | 76 | 360 | 0.0 | 0.0 | 0.00 | 0.00 | 0.00 | 73 | 1015.1 |
| 20260901054607 | 76 | 0 | 0.0 | 0.0 | 0.00 | 0.00 | 0.00 | 62 | 1015.5 |
| 20260901054526 | 76 | 360 | 0.0 | 0.0 | 0.00 | 0.00 | 0.00 | 74 | 1015.1 |
| 20260901053124 | 76 | 0 | 0.0 | 0.0 | 0.00 | 0.00 | 0.00 | 61 | 1015.4 |
| 20260901053024 | 76 | 360 | 0.0 | 0.0 | 0.00 | 0.00 | 0.00 | 73 | 1015.0 |
| 20260901051604 | 76 | 0 | 0.0 | 0.0 | 0.00 | 0.00 | 0.00 | 61 | 1015.4 |
| 20260901051524 | 76 | 360 | 0.0 | 0.0 | 0.00 | 0.00 | 0.00 | 72 | 1015.0 |
| 20260901050107 | 76 | 0 | 0.0 | 0.0 | 0.00 | 0.00 | 0.00 | 60 | 1015.3 |
| 20260901050019 | 76 | 360 | 0.0 | 0.0 | 0.00 | 0.00 | 0.00 | 72 | 1014.9 |
| 20260901044603 | 77 | 0 | 0.0 | 0.0 | 0.00 | 0.00 | 0.00 | 61 | 1015.2 |
| 20260901044519 | 77 | 360 | 0.0 | 0.0 | 0.00 | 0.00 | 0.00 | 72 | 1014.8 |
| 20260901043103 | 77 | 0 | 0.0 | 0.0 | 0.00 | 0.00 | 0.00 | 60 | 1015.2 |
| 20260901043025 | 77 | 360 | 0.0 | 0.0 | 0.00 | 0.00 | 0.00 | 72 | 1014.8 |
| 20260901041609 | 77 | 0 | 0.0 | 0.0 | 0.00 | 0.00 | 0.00 | 60 | 1015.1 |
| 20260901041517 | 77 | 360 | 0.0 | 0.0 | 0.00 | 0.00 | 0.00 | 72 | 1014.7 |
| 20260901040134 | 77 | 0 | 0.0 | 1.0 | 0.00 | 0.00 | 0.00 | 59 | 1015.1 |
| 20260901040018 | 77 | 360 | 0.0 | 1.0 | 0.00 | 0.00 | 0.00 | 71 | 1014.7 |
| 20260901034601 | 78 | 360 | 0.0 | 1.0 | 0.00 | 0.00 | 0.00 | 59 | 1015.0 |
| 20260901034517 | 78 | 360 | 0.0 | 1.0 | 0.00 | 0.00 | 0.00 | 70 | 1014.6 |
| 20260901033116 | 78 | 360 | 0.0 | 2.0 | 0.00 | 0.00 | 0.00 | 58 | 1015.0 |
| 20260901033018 | 78 | 360 | 0.0 | 1.0 | 0.00 | 0.00 | 0.00 | 69 | 1014.6 |
| 20260901031613 | 79 | 360 | 0.0 | 3.0 | 0.00 | 0.00 | 0.00 | 58 | 1014.9 |
| 20260901031529 | 79 | 360 | 1.0 | 3.0 | 0.00 | 0.00 | 0.00 | 70 | 1014.4 |
| 20260901030105 | 79 | 0 | 0.0 | 0.0 | 0.00 | 0.00 | 0.00 | 56 | 1014.7 |
| 20260901030015 | 80 | 360 | 0.0 | 0.0 | 0.00 | 0.00 | 0.00 | 68 | 1014.1 |
| 20260901024605 | 80 | 0 | 0.0 | 0.0 | 0.00 | 0.00 | 0.00 | 54 | 1014.4 |
| 20260901024516 | 81 | 360 | 0.0 | 0.0 | 0.00 | 0.00 | 0.00 | 66 | 1013.8 |
| 20260901023106 | 81 | 0 | 0.0 | 0.0 | 0.00 | 0.00 | 0.00 | 51 | 1014.2 |
| 20260901023024 | 81 | 360 | 0.0 | 0.0 | 0.00 | 0.00 | 0.00 | 62 | 1013.7 |